Grnwood, Indiana
Current Conditions -  °F | °C
As of 5:54 AM on Wednesday 26 Nov 2014 (Local Time) from KIND Reporting Station
Overcast Overcast  
Wind Chill: 19°   Ceiling: 1500
Heat Index: 26°   Visibility: 9mi
Dew Point: 20°   Wind: 6mph
Humidity: 78%   Direction: 30°NNE
Pressure: 30.12"   Gusts: NA
Location:  39.5883°N, 86.07°W
Report Text: KIND 261054Z 03005KT 9SM OVC015 M03/M07 A3012 RMK AO2 SLP210 T10331067
Loading
Personal Weather Stations






























Interactive Weather Map New forecast layout! Learn more

10-Day Weather Forecast

Advertisements
Track Severe Weather on mobile